createdAt,value
2022-09-30T00:00:21.687Z,5.22
2022-09-30T00:02:48.478Z,5.00
2022-09-30T00:05:15.227Z,4.35
2022-09-30T00:07:41.976Z,4.97
2022-09-30T00:12:34.226Z,4.38
2022-09-30T00:15:00.921Z,4.50
2022-09-30T00:19:53.894Z,5.05
2022-09-30T00:22:20.543Z,8.82
2022-09-30T00:24:47.109Z,13.70
2022-09-30T00:34:35.370Z,7.82
2022-09-30T00:47:32.202Z,5.60
2022-09-30T00:50:01.649Z,6.05
2022-09-30T00:52:28.924Z,5.43
2022-09-30T00:57:23.823Z,5.90
2022-09-30T00:59:51.730Z,5.22
2022-09-30T01:02:18.439Z,5.63
2022-09-30T01:04:45.889Z,6.15
2022-09-30T01:07:13.205Z,6.45
2022-09-30T01:14:35.577Z,6.75
2022-09-30T01:22:26.539Z,6.55
2022-09-30T01:25:02.249Z,6.30
2022-09-30T01:27:47.284Z,6.72
2022-09-30T01:30:43.226Z,6.15
2022-09-30T01:33:09.809Z,6.20
2022-09-30T01:35:42.556Z,6.03
2022-09-30T01:49:00.102Z,6.65
2022-09-30T01:51:32.499Z,6.32
2022-09-30T01:54:25.452Z,7.10
2022-09-30T01:56:54.125Z,6.70
2022-09-30T01:59:31.717Z,5.90
2022-09-30T02:02:08.412Z,6.82
2022-09-30T02:07:47.708Z,6.78
2022-09-30T02:10:20.696Z,6.40
2022-09-30T02:15:18.323Z,6.18
2022-09-30T02:17:52.072Z,6.32
2022-09-30T02:20:39.237Z,6.18
2022-09-30T02:28:45.455Z,6.72
2022-09-30T02:31:13.444Z,7.10
2022-09-30T02:36:25.812Z,7.78
2022-09-30T02:38:57.600Z,6.85
2022-09-30T02:41:26.482Z,6.63
2022-09-30T02:43:54.668Z,7.20
2022-09-30T02:46:42.995Z,6.88
2022-09-30T02:49:22.103Z,7.82
2022-09-30T02:51:48.823Z,7.68
2022-09-30T02:54:19.775Z,7.28
2022-09-30T02:56:50.130Z,7.07
2022-09-30T02:59:16.897Z,7.60
2022-09-30T03:01:43.595Z,6.93
2022-09-30T03:06:38.731Z,7.25
2022-09-30T03:09:05.767Z,7.70
2022-09-30T03:11:32.610Z,7.78
2022-09-30T03:14:14.752Z,7.35
2022-09-30T03:19:54.510Z,7.75
2022-09-30T03:22:41.321Z,7.72
2022-09-30T03:32:42.116Z,7.95
2022-09-30T03:37:52.929Z,7.82
2022-09-30T03:40:27.851Z,8.80
2022-09-30T03:45:28.882Z,8.43
2022-09-30T03:47:58.726Z,8.68
2022-09-30T03:50:27.369Z,8.70
2022-09-30T03:52:54.125Z,8.65
2022-09-30T03:55:23.324Z,8.32
2022-09-30T03:57:50.133Z,8.52
2022-09-30T04:00:17.469Z,8.80
2022-09-30T04:02:44.134Z,8.60
2022-09-30T04:05:12.435Z,9.73
2022-09-30T04:12:30.921Z,10.13
2022-09-30T04:14:57.665Z,10.50
2022-09-30T04:17:24.543Z,10.18
2022-09-30T04:19:52.691Z,10.30
2022-09-30T04:22:23.212Z,10.50
2022-09-30T04:29:44.191Z,9.52
2022-09-30T04:34:37.346Z,10.68
2022-09-30T04:37:08.577Z,14.35
2022-09-30T04:42:03.103Z,12.25
2022-09-30T04:44:30.233Z,11.25
2022-09-30T04:46:57.335Z,11.38
2022-09-30T04:49:24.509Z,14.07
2022-09-30T04:51:51.415Z,13.73
2022-09-30T04:54:19.738Z,13.30
2022-09-30T04:56:46.398Z,14.05
2022-09-30T04:59:14.463Z,13.65
2022-09-30T05:01:43.068Z,12.38
2022-09-30T05:04:11.865Z,19.80
2022-09-30T05:06:42.074Z,11.82
2022-09-30T05:09:08.858Z,9.68
2022-09-30T05:11:38.174Z,9.75
2022-09-30T05:14:08.920Z,8.38
2022-09-30T05:16:35.676Z,9.52
2022-09-30T05:19:02.375Z,9.48
2022-09-30T05:23:54.494Z,10.75
2022-09-30T05:26:21.199Z,10.45
2022-09-30T05:28:48.014Z,10.18
2022-09-30T05:33:40.533Z,8.88
2022-09-30T05:36:07.905Z,8.55
2022-09-30T05:41:11.630Z,9.32
2022-09-30T05:43:39.671Z,10.32
2022-09-30T05:46:06.805Z,9.40
2022-09-30T05:48:33.530Z,9.00
2022-09-30T05:53:27.765Z,9.52
2022-09-30T05:55:54.403Z,9.75
2022-09-30T05:58:21.503Z,9.95
2022-09-30T06:00:48.746Z,10.10
2022-09-30T06:03:15.375Z,10.13
2022-09-30T06:05:42.030Z,10.20
2022-09-30T06:08:08.644Z,9.90
2022-09-30T06:10:36.014Z,9.50
2022-09-30T06:20:20.586Z,9.98
2022-09-30T06:22:47.373Z,10.05
2022-09-30T06:25:14.603Z,9.93
2022-09-30T06:32:35.823Z,9.35
2022-09-30T06:35:03.896Z,9.57
2022-09-30T06:37:30.554Z,8.95
2022-09-30T06:39:57.177Z,9.73
2022-09-30T06:44:53.437Z,9.15
2022-09-30T06:47:25.176Z,9.63
2022-09-30T06:49:53.157Z,10.23
2022-09-30T06:52:20.382Z,10.05
2022-09-30T06:54:47.269Z,10.20
2022-09-30T06:59:39.923Z,8.15
2022-09-30T07:02:06.641Z,8.00
2022-09-30T07:04:33.349Z,8.05
2022-09-30T07:06:59.953Z,7.03
2022-09-30T07:09:26.758Z,7.55
2022-09-30T07:11:53.695Z,6.72
2022-09-30T07:16:46.563Z,6.15
2022-09-30T07:19:13.268Z,6.30
2022-09-30T07:21:39.879Z,6.05
2022-09-30T07:24:06.568Z,6.65
2022-09-30T07:26:33.481Z,5.85
2022-09-30T07:31:34.954Z,6.38
2022-09-30T07:36:33.043Z,6.18
2022-09-30T07:39:14.940Z,6.07
2022-09-30T07:41:41.955Z,6.00
2022-09-30T07:44:11.214Z,5.30
2022-09-30T07:46:40.417Z,4.80
2022-09-30T07:49:08.951Z,4.60
2022-09-30T07:54:05.878Z,4.00
2022-09-30T07:56:51.281Z,3.30
2022-09-30T08:01:45.356Z,3.33
2022-09-30T08:04:13.099Z,3.13
2022-09-30T08:06:41.050Z,3.13
2022-09-30T08:09:08.447Z,3.13
2022-09-30T08:11:36.010Z,3.20
2022-09-30T08:14:03.111Z,3.50
2022-09-30T08:16:29.795Z,3.00
2022-09-30T08:18:57.355Z,3.25
2022-09-30T08:21:24.139Z,3.28
2022-09-30T08:28:42.963Z,2.80
2022-09-30T08:31:14.874Z,2.60
2022-09-30T08:36:08.618Z,2.40
2022-09-30T08:38:35.566Z,1.95
2022-09-30T08:41:02.135Z,1.90
2022-09-30T08:43:36.244Z,1.65
2022-09-30T08:48:28.933Z,1.38
2022-09-30T08:50:58.350Z,1.23
2022-09-30T08:53:28.272Z,1.33
2022-09-30T08:55:57.161Z,1.00
2022-09-30T08:58:28.617Z,1.00
2022-09-30T09:00:57.181Z,1.00
2022-09-30T09:03:26.728Z,0.80
2022-09-30T09:06:17.038Z,1.67
2022-09-30T09:08:43.617Z,1.17
2022-09-30T09:11:10.282Z,0.80
2022-09-30T09:29:01.542Z,0.73
2022-09-30T09:31:28.280Z,0.80
2022-09-30T09:33:59.789Z,0.98
2022-09-30T09:36:48.607Z,0.88
2022-09-30T09:39:24.465Z,0.90
2022-09-30T09:44:38.675Z,1.02
2022-09-30T09:47:14.037Z,0.98
2022-09-30T09:49:42.825Z,1.00
2022-09-30T09:52:15.198Z,1.00
2022-09-30T09:54:46.337Z,0.90
2022-09-30T09:57:15.137Z,0.82
2022-09-30T10:02:33.030Z,0.73
2022-09-30T10:05:04.033Z,0.80
2022-09-30T10:07:32.059Z,0.80
2022-09-30T10:12:38.182Z,0.52
2022-09-30T10:15:13.566Z,0.90
2022-09-30T10:17:40.322Z,0.90
2022-09-30T10:28:27.146Z,0.80
2022-09-30T10:31:23.571Z,0.80
2022-09-30T10:33:59.334Z,1.00
2022-09-30T10:36:31.072Z,0.75
2022-09-30T10:44:17.113Z,1.30
2022-09-30T10:46:45.430Z,1.08
2022-09-30T10:49:23.275Z,1.02
2022-09-30T10:51:50.058Z,1.50
2022-09-30T10:54:49.457Z,1.10
2022-09-30T10:59:45.668Z,1.27
2022-09-30T11:04:55.854Z,1.38
2022-09-30T11:07:23.247Z,1.63
2022-09-30T11:09:59.149Z,1.80
2022-09-30T11:12:41.198Z,1.80
2022-09-30T11:15:13.093Z,1.50
2022-09-30T11:20:29.957Z,1.50
2022-09-30T11:25:35.269Z,1.00
2022-09-30T11:28:01.938Z,0.80
2022-09-30T11:33:22.923Z,0.80
2022-09-30T11:35:54.326Z,0.85
2022-09-30T11:38:33.389Z,0.77
2022-09-30T11:48:57.027Z,0.43
2022-09-30T11:51:32.957Z,0.47
2022-09-30T11:53:59.589Z,0.60
2022-09-30T11:56:26.361Z,0.65
2022-09-30T12:04:08.576Z,0.77
2022-09-30T12:06:40.725Z,0.60
2022-09-30T12:09:25.040Z,0.75
2022-09-30T12:12:09.336Z,0.60
2022-09-30T12:14:40.938Z,0.60
2022-09-30T12:17:12.068Z,0.60
2022-09-30T12:19:42.960Z,0.93
2022-09-30T12:22:20.804Z,0.60
2022-09-30T12:24:47.393Z,0.65
2022-09-30T12:27:21.355Z,0.68
2022-09-30T12:38:08.777Z,0.70
2022-09-30T12:40:52.421Z,0.90
2022-09-30T12:43:30.442Z,0.77
2022-09-30T12:48:33.354Z,0.68
2022-09-30T12:51:00.518Z,1.00
2022-09-30T12:53:31.628Z,0.60
2022-09-30T12:56:24.299Z,0.77
2022-09-30T12:58:52.006Z,0.88
2022-09-30T13:09:37.419Z,1.20
2022-09-30T13:12:04.262Z,0.98
2022-09-30T13:14:35.956Z,1.20
2022-09-30T13:30:01.073Z,0.60
2022-09-30T13:32:32.104Z,0.60
2022-09-30T13:34:58.796Z,0.50
2022-09-30T13:42:28.066Z,0.50
2022-09-30T13:49:55.300Z,0.50
2022-09-30T13:52:26.156Z,0.80
2022-09-30T13:54:55.056Z,0.68
2022-09-30T13:57:28.798Z,0.60
2022-09-30T14:00:02.694Z,0.60
2022-09-30T14:02:41.674Z,0.50
2022-09-30T14:05:08.331Z,0.60
2022-09-30T14:07:38.162Z,0.70
2022-09-30T14:10:09.635Z,0.70
2022-09-30T14:18:07.529Z,0.90
2022-09-30T14:23:05.286Z,1.10
2022-09-30T14:25:36.772Z,1.17
2022-09-30T14:31:19.402Z,1.13
2022-09-30T14:33:48.738Z,0.77
2022-09-30T14:36:17.176Z,0.88
2022-09-30T14:41:14.922Z,0.98
2022-09-30T14:43:43.302Z,0.80
2022-09-30T14:46:25.151Z,0.93
2022-09-30T14:48:53.047Z,1.10
2022-09-30T14:51:23.511Z,0.68
2022-09-30T14:56:22.166Z,1.00
2022-09-30T14:58:53.021Z,1.13
2022-09-30T15:04:08.538Z,1.02
2022-09-30T15:06:37.163Z,1.10
2022-09-30T15:09:22.536Z,1.00
2022-09-30T15:14:20.508Z,1.38
2022-09-30T15:16:48.611Z,1.00
2022-09-30T15:19:19.484Z,1.33
2022-09-30T15:21:46.342Z,1.38
2022-09-30T15:24:13.362Z,1.55
2022-09-30T15:26:41.798Z,1.40
2022-09-30T15:31:35.420Z,1.20
2022-09-30T15:34:07.024Z,1.35
2022-09-30T15:36:35.287Z,1.10
2022-09-30T15:39:03.171Z,1.30
2022-09-30T15:41:29.798Z,2.00
2022-09-30T15:44:00.444Z,1.48
2022-09-30T15:46:27.449Z,1.40
2022-09-30T15:51:41.149Z,1.40
2022-09-30T15:54:26.145Z,1.05
2022-09-30T15:56:52.747Z,1.20
2022-09-30T15:59:19.728Z,0.98
2022-09-30T16:01:46.270Z,1.13
2022-09-30T16:04:15.872Z,1.00
2022-09-30T16:06:51.774Z,0.93
2022-09-30T16:11:48.615Z,1.23
2022-09-30T16:14:20.206Z,1.10
2022-09-30T16:16:57.396Z,1.08
2022-09-30T16:19:27.195Z,1.17
2022-09-30T16:21:54.871Z,1.50
2022-09-30T16:24:21.419Z,1.52
2022-09-30T16:31:51.128Z,1.05
2022-09-30T16:34:28.423Z,1.08
2022-09-30T16:37:03.405Z,1.20
2022-09-30T16:41:55.484Z,1.30
2022-09-30T16:44:24.405Z,1.30
2022-09-30T16:51:44.770Z,1.92
2022-09-30T16:59:43.540Z,1.65
2022-09-30T17:02:14.158Z,1.60
2022-09-30T17:04:40.864Z,2.08
2022-09-30T17:14:27.966Z,2.92
2022-09-30T17:21:45.844Z,3.55
2022-09-30T17:24:12.594Z,3.20
2022-09-30T17:26:39.321Z,2.65
2022-09-30T17:29:21.180Z,2.60
2022-09-30T17:34:19.710Z,2.90
2022-09-30T17:36:46.366Z,2.72
2022-09-30T17:41:57.416Z,2.80
2022-09-30T17:47:00.706Z,2.20
2022-09-30T17:49:32.143Z,2.90
2022-09-30T17:51:59.260Z,2.75
2022-09-30T18:04:13.474Z,2.97
2022-09-30T18:06:40.452Z,3.15
2022-09-30T18:09:07.357Z,2.67
2022-09-30T18:16:30.866Z,2.67
2022-09-30T18:18:59.383Z,2.80
2022-09-30T18:21:27.253Z,2.28
2022-09-30T18:24:05.325Z,2.40
2022-09-30T18:26:33.606Z,2.50
2022-09-30T18:29:02.800Z,1.85
2022-09-30T18:31:34.466Z,1.83
2022-09-30T18:34:02.299Z,1.70
2022-09-30T18:36:34.322Z,1.60
2022-09-30T18:39:02.594Z,1.80
2022-09-30T18:41:30.749Z,1.70
2022-09-30T18:44:02.728Z,2.00
2022-09-30T18:46:30.155Z,1.83
2022-09-30T18:48:57.170Z,2.63
2022-09-30T18:51:25.401Z,2.80
2022-09-30T18:53:57.663Z,3.00
2022-09-30T19:06:18.805Z,2.20
2022-09-30T19:08:45.442Z,1.88
2022-09-30T19:11:14.751Z,1.70
2022-09-30T19:13:43.085Z,1.52
2022-09-30T19:16:11.718Z,2.47
2022-09-30T19:18:39.883Z,1.73
2022-09-30T19:21:07.915Z,1.80
2022-09-30T19:26:01.347Z,2.00
2022-09-30T19:28:31.397Z,2.15
2022-09-30T19:36:14.084Z,1.88
2022-09-30T19:38:42.581Z,1.98
2022-09-30T19:43:35.835Z,1.95
2022-09-30T19:46:04.269Z,1.60
2022-09-30T19:50:58.275Z,2.00
2022-09-30T19:53:30.705Z,1.80
2022-09-30T19:56:02.080Z,1.60
2022-09-30T19:58:32.446Z,2.20
2022-09-30T20:00:59.118Z,2.28
2022-09-30T20:03:28.298Z,1.60
2022-09-30T20:05:58.490Z,2.03
2022-09-30T20:08:25.206Z,1.45
2022-09-30T20:10:51.865Z,2.40
2022-09-30T20:13:18.476Z,1.48
2022-09-30T20:15:51.006Z,1.35
2022-09-30T20:20:45.786Z,1.52
2022-09-30T20:23:13.186Z,1.65
2022-09-30T20:31:11.278Z,1.35
2022-09-30T20:33:38.320Z,1.67
2022-09-30T20:36:05.452Z,1.40
2022-09-30T20:41:00.417Z,1.52
2022-09-30T20:43:30.113Z,1.73
2022-09-30T20:46:00.351Z,1.27
2022-09-30T20:48:34.235Z,1.60
2022-09-30T20:51:07.982Z,1.75
2022-09-30T20:53:37.668Z,1.25
2022-09-30T20:56:04.534Z,1.63
2022-09-30T20:58:31.294Z,1.48
2022-09-30T21:01:05.861Z,1.08
2022-09-30T21:03:36.810Z,1.30
2022-09-30T21:06:04.297Z,1.30
2022-09-30T21:08:31.198Z,1.25
2022-09-30T21:11:01.746Z,1.30
2022-09-30T21:13:28.965Z,1.20
2022-09-30T21:18:28.094Z,1.13
2022-09-30T21:26:42.202Z,1.10
2022-09-30T21:29:08.894Z,1.27
2022-09-30T21:31:37.837Z,1.30
2022-09-30T21:34:04.744Z,1.10
2022-09-30T21:36:32.232Z,1.10
2022-09-30T21:41:32.750Z,1.02
2022-09-30T21:44:00.469Z,1.77
2022-09-30T21:46:27.216Z,0.90
2022-09-30T21:49:07.293Z,1.10
2022-09-30T21:51:35.533Z,1.08
2022-09-30T21:54:02.909Z,1.02
2022-09-30T21:56:29.576Z,1.05
2022-09-30T21:58:56.527Z,0.80
2022-09-30T22:01:23.385Z,0.93
2022-09-30T22:03:50.008Z,0.90
2022-09-30T22:08:44.242Z,0.85
2022-09-30T22:11:12.498Z,1.13
2022-09-30T22:18:33.078Z,0.88
2022-09-30T22:21:07.346Z,0.90
2022-09-30T22:23:35.130Z,1.38
2022-09-30T22:30:58.515Z,0.75
2022-09-30T22:33:43.458Z,0.80
2022-09-30T22:36:28.415Z,0.82
2022-09-30T22:38:54.979Z,0.75
2022-09-30T22:41:22.262Z,0.63
2022-09-30T22:43:49.150Z,0.70
2022-09-30T22:48:41.147Z,0.47
2022-09-30T22:51:14.248Z,0.90
2022-09-30T22:53:41.052Z,0.60
2022-09-30T22:56:08.020Z,0.60
2022-09-30T22:58:36.999Z,0.50
2022-09-30T23:03:29.147Z,0.50
2022-09-30T23:06:02.632Z,0.70
2022-09-30T23:08:33.515Z,0.40
2022-09-30T23:11:03.153Z,0.60
2022-09-30T23:13:30.536Z,0.70
2022-09-30T23:23:24.173Z,0.40
2022-09-30T23:25:59.988Z,0.30
2022-09-30T23:28:26.714Z,0.82
2022-09-30T23:30:53.517Z,0.40
2022-09-30T23:33:20.202Z,0.52
2022-09-30T23:35:47.838Z,0.40
2022-09-30T23:38:14.814Z,0.35
2022-09-30T23:40:47.915Z,0.40
2022-09-30T23:43:15.061Z,0.32
2022-09-30T23:45:42.454Z,0.45
2022-09-30T23:48:09.393Z,0.40
2022-09-30T23:50:36.050Z,0.30
2022-09-30T23:53:02.651Z,0.50
2022-09-30T23:55:29.622Z,0.55
2022-09-30T23:57:57.935Z,0.30
